Saturday, December 16, 2017, 9:13 PM EST
Back to Local

KPVC, Provincetown, Provincetown Municipal Airport

Location: Provincetown, MA, United States Lat: 42.067
Local Time: 9:13 PM EST ( 2:13 GMT) Lon: -70.217
Time Zone: US/Eastern Elev: 6 ft

Show me the last for .
Show Decoded

2017-12-16 20:56 METAR KPVC 170156Z AUTO 32021G28KT 10SM UP BKN044 OVC050 00/M08 A3008 RMK AO2 PK
                 WND 32028/0155 UPB38 SLP187 T00001083 FZRANO =
2017-12-16 19:56 METAR KPVC 170056Z AUTO 30017G27KT 10SM SCT040 BKN049 OVC060 00/M07 A3006 RMK
                 AO2 SLP179 T00001067 FZRANO =
2017-12-16 18:56 METAR KPVC 162356Z AUTO 29021G29KT 10SM FEW048 00/M09 RMK AO2 PK WND 29032/2342
                 SLPNO 6//// T00001089 10011 20000 FZRANO $ =
2017-12-16 17:56 METAR KPVC 162256Z AUTO 29020G27KT 10SM FEW090 00/M09 A2999 RMK AO2 PK WND
                 29028/2239 SLP155 T00001089 FZRANO =
2017-12-16 16:56 METAR KPVC 162156Z AUTO 27017G24KT 10SM FEW046 00/M08 A2997 RMK AO2 SLP147
                 T00001078 FZRANO =
2017-12-16 15:56 METAR KPVC 162056Z AUTO 28018G25KT 10SM FEW046 OVC120 00/M08 A2994 RMK AO2 PK
                 WND 29028/2042 SLP138 6//// T00001078 53018 FZRANO =
2017-12-16 14:56 METAR KPVC 161956Z AUTO 27018G26KT 10SM FEW120 01/M09 A2992 RMK AO2 PK WND
                 27026/1952 SLP130 T00061089 FZRANO =
2017-12-16 13:56 METAR KPVC 161856Z AUTO 10SM SCT120 01/M08 A2989 RMK AO2 SLP120 T00061078 FZRANO
                 =
2017-12-16 12:56 METAR KPVC 161756Z AUTO 27017G21KT 10SM CLR 01/M08 A2989 RMK AO2 SLP120 6////
                 T00111078 10017 21039 FZRANO =
2017-12-16 11:56 METAR KPVC 161656Z AUTO 27014G23KT 10SM CLR 01/M08 A2991 RMK AO2 SLP128
                 T00111078 FZRANO =
2017-12-16 10:56 METAR KPVC 161556Z AUTO 28019G25KT 10SM CLR 00/M07 A2992 RMK AO2 SLP130
                 T00001072 FZRANO =
2017-12-16 09:56 METAR KPVC 161456Z AUTO 29017G23KT 10SM CLR M01/M06 RMK AO2 SLPNO 6////
                 T10111061 FZRANO $ =
2017-12-16 08:56 METAR KPVC 161356Z AUTO 29018G24KT 10SM CLR M02/M06 A2991 RMK AO2 SLP129
                 T10171061 FZRANO =
2017-12-16 07:56 METAR KPVC 161256Z AUTO 29017G23KT 10SM FEW020 M03/M06 A2989 RMK AO2 SLP120
                 T10281061 FZRANO =
2017-12-16 06:56 METAR KPVC 161156Z AUTO 29018G25KT 10SM FEW021 M03/M07 A2987 RMK AO2 SLP114
                 6//// 7//// T10331067 11022 21039 FZRANO =
2017-12-16 05:56 METAR KPVC 161056Z AUTO 29017G22KT 10SM SCT020 M03/M07 RMK AO2 SLPNO T10331067
                 FZRANO $ =
2017-12-16 05:27 METAR KPVC 161027Z AUTO 29016G24KT 10SM FEW022 M03/M07 A2984 RMK AO2 FZRANO =
2017-12-16 04:56 METAR KPVC 160956Z AUTO 28016G20KT 10SM BKN022 OVC030 M03/M06 A2983 RMK AO2
                 SLP099 T10281061 FZRANO =
2017-12-16 03:56 METAR KPVC 160856Z AUTO 29016G22KT 10SM BKN021 OVC026 M02/M06 A2980 RMK AO2
                 SLP091 6//// T10221056 53005 FZRANO =
2017-12-16 02:56 METAR KPVC 160756Z AUTO 30015KT 10SM BKN019 OVC055 M02/M06 A2979 RMK AO2 SNE24
                 SLP089 P0000 T10221056 FZRANO =
2017-12-16 01:56 METAR KPVC 160656Z AUTO 30013G22KT 9SM -SN BKN017 OVC022 M02/M04 A2979 RMK AO2
                 UPB22E25SNE22B27 SLP086 P0000 T10221044 FZRANO =
2017-12-16 00:56 METAR KPVC 160556Z AUTO 5SM -SN BR OVC011 M03/M04 A2978 RMK AO2 SLP082 P0000
                 60001 T10281039 11017 21033 56021 FZRANO =
2017-12-15 23:56 METAR KPVC 160456Z AUTO 29010KT 4SM -SN BR OVC011 M03/M04 A2980 RMK AO2 CIG
                 007V013 SLP090 P0000 T10281039 410171061 FZRANO =
2017-12-15 23:34 METAR KPVC 160434Z AUTO 30010KT 3SM -SN BR BKN009 OVC016 M02/M04 RMK AO2 CIG
                 007V012 P0000 FZRANO $ =
2017-12-15 22:56 METAR KPVC 160356Z AUTO 29010KT 2 1/2SM -SN BR BKN007 OVC015 M02/M03 A2982 RMK
                 AO2 CIG 006V011 SLP096 P0001 T10171033 FZRANO =
2017-12-15 22:44 METAR KPVC 160344Z AUTO 28009KT 2SM -SN BR BKN007 OVC013 M02/M03 A2982 RMK AO2
                 P0001 FZRANO =
2017-12-15 22:12 METAR KPVC 160312Z AUTO 00000KT 1 1/2SM -SN BR BKN007 OVC013 M03/M04 RMK AO2 CIG
                 005V010 P0001 FZRANO $ =
2017-12-15 22:08 METAR KPVC 160308Z AUTO 00000KT 1 1/2SM -SN BR SCT007 OVC015 M03/M04 A2983 RMK
                 AO2 P0000 FZRANO =
2017-12-15 22:05 METAR KPVC 160305Z AUTO 00000KT 2SM -SN BR SCT010 BKN015 OVC019 M03/M04 A2984
                 RMK AO2 P0000 FZRANO =
2017-12-15 21:56 METAR KPVC 160256Z AUTO 00000KT 3SM -SN BR BKN010 OVC015 M03/M04 A2984 RMK AO2
                 UPE01SNB01 CIG 009V012 SLP104 P0000 60000 T10281044 56013 FZRANO =
2017-12-15 21:14 METAR KPVC 160214Z AUTO 00000KT 4SM -SN BR FEW009 BKN013 OVC026 M03/M04 A2984
                 RMK AO2 UPE01SNB01 P0000 FZRANO =

Support USWX by starting your Amazon purchase here.